ETD333 EGKK-EDDM
Flight info
| Callsign | ETD333 |
|---|---|
| Flight time | 1h 24m |
| Altitude | 40000 |
| Route | DVR L9 KONAN UL607 SPI DCT MOVUM T109 HAREM T104 ROKIL ROKIL1A |
| Aircraft | A35K/H-SDE2E3GHIJ3J4J5LM1ORWXY/LB1D1 |
Departure
| Time | 2026-05-08 02:17 |
|---|---|
| Airport | London Gatwick Airport (EGKK) |
Arrival
| Time | 2026-05-08 03:41 |
|---|---|
| Airport | Munich Airport (EDDM) |
| Time | Latitude | Longitude | Altitude | Speed | Heading |
|---|---|---|---|---|---|
| 2026-05-08 01:39 | 51.15877 | -0.16931 | 211 ft | 0 kts | 130° |
| 2026-05-08 02:01 | 51.15885 | -0.16946 | 220 ft | 2 kts | 129° |
| 2026-05-08 02:01 | 51.15896 | -0.16966 | 218 ft | 2 kts | 130° |
| 2026-05-08 02:01 | 51.15905 | -0.16984 | 221 ft | 2 kts | 130° |
| 2026-05-08 02:02 | 51.15915 | -0.17003 | 221 ft | 2 kts | 131° |
| 2026-05-08 02:02 | 51.15929 | -0.17016 | 222 ft | 2 kts | 196° |
| 2026-05-08 02:02 | 51.15943 | -0.17004 | 222 ft | 2 kts | 224° |
| 2026-05-08 02:02 | 51.15947 | -0.16997 | 222 ft | 0 kts | 228° |
| 2026-05-08 02:07 | 51.15941 | -0.17006 | 222 ft | 3 kts | 222° |
| 2026-05-08 02:07 | 51.15910 | -0.17043 | 217 ft | 8 kts | 212° |
| 2026-05-08 02:07 | 51.15852 | -0.17078 | 217 ft | 10 kts | 193° |
| 2026-05-08 02:08 | 51.15798 | -0.17161 | 220 ft | 13 kts | 253° |
| 2026-05-08 02:08 | 51.15788 | -0.17321 | 211 ft | 16 kts | 264° |
| 2026-05-08 02:08 | 51.15762 | -0.17506 | 220 ft | 17 kts | 257° |
| 2026-05-08 02:08 | 51.15738 | -0.17681 | 218 ft | 17 kts | 257° |
| 2026-05-08 02:09 | 51.15712 | -0.17868 | 214 ft | 16 kts | 258° |
| 2026-05-08 02:09 | 51.15689 | -0.18042 | 218 ft | 18 kts | 258° |
| 2026-05-08 02:09 | 51.15661 | -0.18250 | 222 ft | 21 kts | 258° |
| 2026-05-08 02:09 | 51.15629 | -0.18480 | 217 ft | 18 kts | 257° |
| 2026-05-08 02:10 | 51.15602 | -0.18673 | 217 ft | 20 kts | 257° |
| 2026-05-08 02:10 | 51.15537 | -0.18832 | 219 ft | 14 kts | 185° |
| 2026-05-08 02:10 | 51.15442 | -0.18797 | 215 ft | 16 kts | 166° |
| 2026-05-08 02:10 | 51.15323 | -0.18752 | 220 ft | 19 kts | 167° |
| 2026-05-08 02:11 | 51.15204 | -0.18710 | 219 ft | 9 kts | 167° |
| 2026-05-08 02:11 | 51.15139 | -0.18727 | 220 ft | 11 kts | 225° |
| 2026-05-08 02:11 | 51.15113 | -0.18858 | 218 ft | 14 kts | 255° |
| 2026-05-08 02:11 | 51.15087 | -0.19032 | 219 ft | 18 kts | 259° |
| 2026-05-08 02:12 | 51.15061 | -0.19228 | 211 ft | 21 kts | 258° |
| 2026-05-08 02:12 | 51.15029 | -0.19471 | 221 ft | 24 kts | 258° |
| 2026-05-08 02:12 | 51.14992 | -0.19745 | 213 ft | 27 kts | 258° |
| 2026-05-08 02:12 | 51.14951 | -0.20050 | 216 ft | 30 kts | 257° |
| 2026-05-08 02:13 | 51.14903 | -0.20380 | 217 ft | 32 kts | 257° |
| 2026-05-08 02:13 | 51.14866 | -0.20647 | 217 ft | 24 kts | 257° |
| 2026-05-08 02:13 | 51.14827 | -0.20922 | 219 ft | 27 kts | 259° |
| 2026-05-08 02:13 | 51.14788 | -0.21169 | 222 ft | 22 kts | 255° |
| 2026-05-08 02:14 | 51.14768 | -0.21302 | 216 ft | 18 kts | 257° |
| 2026-05-08 02:14 | 51.14743 | -0.21386 | 214 ft | 0 kts | 216° |
| 2026-05-08 02:14 | 51.14741 | -0.21388 | 219 ft | 1 kts | 212° |
| 2026-05-08 02:15 | 51.14719 | -0.21400 | 219 ft | 4 kts | 189° |
| 2026-05-08 02:15 | 51.14667 | -0.21362 | 222 ft | 9 kts | 148° |
| 2026-05-08 02:15 | 51.14598 | -0.21321 | 220 ft | 12 kts | 161° |
| 2026-05-08 02:15 | 51.14538 | -0.21252 | 221 ft | 11 kts | 126° |
| 2026-05-08 02:16 | 51.14525 | -0.21176 | 223 ft | 11 kts | 91° |
| 2026-05-08 02:16 | 51.14538 | -0.21042 | 221 ft | 16 kts | 77° |
| 2026-05-08 02:16 | 51.14604 | -0.20574 | 220 ft | 82 kts | 77° |
| 2026-05-08 02:16 | 51.14780 | -0.19301 | 216 ft | 154 kts | 77° |
| 2026-05-08 02:17 | 51.15026 | -0.17497 | 864 ft | 166 kts | 78° |
| 2026-05-08 02:17 | 51.15268 | -0.15665 | 1735 ft | 179 kts | 81° |
| 2026-05-08 02:17 | 51.15519 | -0.13596 | 2216 ft | 207 kts | 82° |
| 2026-05-08 02:17 | 51.15826 | -0.11180 | 2706 ft | 237 kts | 80° |
| 2026-05-08 02:18 | 51.16183 | -0.08533 | 3500 ft | 250 kts | 79° |
| 2026-05-08 02:18 | 51.16552 | -0.05787 | 4436 ft | 257 kts | 80° |
| 2026-05-08 02:18 | 51.16897 | -0.02946 | 5299 ft | 265 kts | 81° |
| 2026-05-08 02:18 | 51.17194 | -0.00032 | 5825 ft | 267 kts | 82° |
| 2026-05-08 02:19 | 51.17432 | 0.02905 | 5897 ft | 268 kts | 84° |
| 2026-05-08 02:19 | 51.17611 | 0.05859 | 5889 ft | 268 kts | 86° |
| 2026-05-08 02:19 | 51.17729 | 0.08814 | 5913 ft | 269 kts | 88° |
| 2026-05-08 02:19 | 51.17788 | 0.11796 | 5932 ft | 269 kts | 89° |
| 2026-05-08 02:20 | 51.17787 | 0.14782 | 5920 ft | 269 kts | 91° |
| 2026-05-08 02:20 | 51.17726 | 0.17766 | 5906 ft | 269 kts | 93° |
| 2026-05-08 02:20 | 51.17605 | 0.20737 | 5896 ft | 269 kts | 95° |
| 2026-05-08 02:20 | 51.17435 | 0.23706 | 5876 ft | 269 kts | 96° |
| 2026-05-08 02:21 | 51.17252 | 0.26675 | 5866 ft | 269 kts | 96° |
| 2026-05-08 02:21 | 51.17068 | 0.29643 | 5857 ft | 269 kts | 96° |
| 2026-05-08 02:21 | 51.16913 | 0.32614 | 5858 ft | 269 kts | 93° |
| 2026-05-08 02:21 | 51.16876 | 0.35596 | 5854 ft | 270 kts | 91° |
| 2026-05-08 02:22 | 51.16872 | 0.38581 | 5859 ft | 269 kts | 91° |
| 2026-05-08 02:22 | 51.16869 | 0.41567 | 5852 ft | 269 kts | 90° |
| 2026-05-08 02:22 | 51.16863 | 0.44555 | 5856 ft | 270 kts | 90° |
| 2026-05-08 02:22 | 51.16857 | 0.47537 | 5860 ft | 270 kts | 91° |
| 2026-05-08 02:23 | 51.16850 | 0.50528 | 5854 ft | 269 kts | 90° |
| 2026-05-08 02:23 | 51.16840 | 0.53507 | 5857 ft | 269 kts | 90° |
| 2026-05-08 02:23 | 51.16829 | 0.56490 | 5859 ft | 269 kts | 90° |
| 2026-05-08 02:23 | 51.16817 | 0.59466 | 5871 ft | 269 kts | 90° |
| 2026-05-08 02:24 | 51.16805 | 0.62451 | 5886 ft | 269 kts | 90° |
| 2026-05-08 02:24 | 51.16792 | 0.65432 | 5898 ft | 269 kts | 90° |
| 2026-05-08 02:24 | 51.16778 | 0.68421 | 5915 ft | 270 kts | 90° |
| 2026-05-08 02:24 | 51.16764 | 0.71408 | 5929 ft | 269 kts | 90° |
| 2026-05-08 02:25 | 51.16749 | 0.74355 | 5942 ft | 269 kts | 90° |
| 2026-05-08 02:25 | 51.16733 | 0.77339 | 5956 ft | 269 kts | 90° |
| 2026-05-08 02:25 | 51.16716 | 0.80360 | 5978 ft | 270 kts | 90° |
| 2026-05-08 02:25 | 51.16698 | 0.83307 | 5991 ft | 269 kts | 90° |
| 2026-05-08 02:26 | 51.16680 | 0.86291 | 6008 ft | 269 kts | 90° |
| 2026-05-08 02:26 | 51.16661 | 0.89276 | 6017 ft | 269 kts | 90° |
| 2026-05-08 02:26 | 51.16642 | 0.92260 | 6037 ft | 269 kts | 90° |
| 2026-05-08 02:26 | 51.16621 | 0.95241 | 6070 ft | 269 kts | 90° |
| 2026-05-08 02:27 | 51.16601 | 0.98213 | 6077 ft | 271 kts | 90° |
| 2026-05-08 02:27 | 51.16578 | 1.01221 | 6074 ft | 272 kts | 90° |
| 2026-05-08 02:27 | 51.16555 | 1.04237 | 6078 ft | 272 kts | 90° |
| 2026-05-08 02:27 | 51.16531 | 1.07256 | 6077 ft | 273 kts | 91° |
| 2026-05-08 02:28 | 51.16507 | 1.10272 | 6072 ft | 273 kts | 91° |
| 2026-05-08 02:28 | 51.16481 | 1.13288 | 6078 ft | 272 kts | 91° |
| 2026-05-08 02:28 | 51.16455 | 1.16305 | 6077 ft | 272 kts | 91° |
| 2026-05-08 02:28 | 51.16428 | 1.19323 | 6075 ft | 273 kts | 91° |
| 2026-05-08 02:29 | 51.16400 | 1.22343 | 6071 ft | 272 kts | 91° |
| 2026-05-08 02:29 | 51.16372 | 1.25360 | 6071 ft | 272 kts | 91° |
| 2026-05-08 02:29 | 51.16343 | 1.28378 | 6075 ft | 273 kts | 91° |
| 2026-05-08 02:29 | 51.16313 | 1.31399 | 6074 ft | 273 kts | 91° |
| 2026-05-08 02:30 | 51.16282 | 1.34416 | 6069 ft | 272 kts | 91° |
| 2026-05-08 02:30 | 51.16248 | 1.37432 | 6109 ft | 272 kts | 91° |
| 2026-05-08 02:30 | 51.16151 | 1.40458 | 6537 ft | 276 kts | 94° |
| 2026-05-08 02:30 | 51.15995 | 1.43533 | 7485 ft | 279 kts | 96° |
| 2026-05-08 02:31 | 51.15820 | 1.46610 | 8704 ft | 281 kts | 96° |
| 2026-05-08 02:31 | 51.15639 | 1.49744 | 9752 ft | 288 kts | 95° |
| 2026-05-08 02:31 | 51.15459 | 1.52982 | 10619 ft | 302 kts | 95° |
| 2026-05-08 02:31 | 51.15277 | 1.56455 | 11107 ft | 328 kts | 95° |
| 2026-05-08 02:32 | 51.15087 | 1.60214 | 11640 ft | 350 kts | 95° |
| 2026-05-08 02:32 | 51.14893 | 1.64143 | 12511 ft | 360 kts | 95° |
| 2026-05-08 02:32 | 51.14697 | 1.68164 | 13481 ft | 368 kts | 96° |
| 2026-05-08 02:32 | 51.14495 | 1.72260 | 14384 ft | 374 kts | 96° |
| 2026-05-08 02:33 | 51.14290 | 1.76367 | 15259 ft | 380 kts | 96° |
| 2026-05-08 02:33 | 51.14075 | 1.80640 | 16179 ft | 384 kts | 96° |
| 2026-05-08 02:33 | 51.13858 | 1.84910 | 17094 ft | 389 kts | 96° |
| 2026-05-08 02:33 | 51.13639 | 1.89180 | 18022 ft | 394 kts | 96° |
| 2026-05-08 02:34 | 51.13410 | 1.93609 | 18914 ft | 400 kts | 96° |
| 2026-05-08 02:34 | 51.13181 | 1.97997 | 19756 ft | 405 kts | 96° |
| 2026-05-08 02:34 | 51.12945 | 2.02540 | 20610 ft | 410 kts | 96° |
| 2026-05-08 02:34 | 51.12711 | 2.07033 | 21438 ft | 415 kts | 96° |
| 2026-05-08 02:35 | 51.12465 | 2.11637 | 22278 ft | 420 kts | 96° |
| 2026-05-08 02:35 | 51.12214 | 2.16297 | 23112 ft | 425 kts | 96° |
| 2026-05-08 02:35 | 51.11957 | 2.21004 | 23884 ft | 430 kts | 96° |
| 2026-05-08 02:35 | 51.11696 | 2.25771 | 24560 ft | 435 kts | 97° |
| 2026-05-08 02:36 | 51.11431 | 2.30597 | 25230 ft | 440 kts | 97° |
| 2026-05-08 02:36 | 51.11161 | 2.35476 | 25915 ft | 445 kts | 97° |
| 2026-05-08 02:36 | 51.10885 | 2.40410 | 26565 ft | 450 kts | 96° |
| 2026-05-08 02:36 | 51.10605 | 2.45402 | 27227 ft | 455 kts | 97° |
| 2026-05-08 02:37 | 51.10320 | 2.50440 | 27914 ft | 459 kts | 97° |
| 2026-05-08 02:37 | 51.10031 | 2.55516 | 28589 ft | 464 kts | 97° |
| 2026-05-08 02:37 | 51.09735 | 2.60659 | 29218 ft | 468 kts | 97° |
| 2026-05-08 02:37 | 51.09241 | 2.65783 | 29831 ft | 471 kts | 105° |
| 2026-05-08 02:38 | 51.08446 | 2.70861 | 30387 ft | 475 kts | 107° |
| 2026-05-08 02:38 | 51.07572 | 2.75945 | 30915 ft | 478 kts | 108° |
| 2026-05-08 02:38 | 51.06655 | 2.81037 | 31435 ft | 481 kts | 108° |
| 2026-05-08 02:38 | 51.05711 | 2.86169 | 31960 ft | 485 kts | 108° |
| 2026-05-08 02:39 | 51.04756 | 2.91326 | 32420 ft | 488 kts | 108° |
| 2026-05-08 02:39 | 51.03794 | 2.96525 | 32884 ft | 492 kts | 108° |
| 2026-05-08 02:39 | 51.02828 | 3.01752 | 33331 ft | 495 kts | 108° |
| 2026-05-08 02:39 | 51.01857 | 3.07014 | 33772 ft | 498 kts | 108° |
| 2026-05-08 02:40 | 51.00887 | 3.12274 | 34325 ft | 496 kts | 108° |
| 2026-05-08 02:40 | 50.99918 | 3.17522 | 34814 ft | 496 kts | 108° |
| 2026-05-08 02:40 | 50.98947 | 3.22769 | 35236 ft | 497 kts | 108° |
| 2026-05-08 02:40 | 50.97968 | 3.28036 | 35643 ft | 498 kts | 108° |
| 2026-05-08 02:41 | 50.96985 | 3.33311 | 36016 ft | 499 kts | 108° |
| 2026-05-08 02:41 | 50.96011 | 3.38523 | 36388 ft | 500 kts | 108° |
| 2026-05-08 02:41 | 50.95022 | 3.43801 | 36784 ft | 501 kts | 108° |
| 2026-05-08 02:41 | 50.94026 | 3.49100 | 37166 ft | 501 kts | 108° |
| 2026-05-08 02:42 | 50.93029 | 3.54389 | 37551 ft | 502 kts | 108° |
| 2026-05-08 02:42 | 50.92025 | 3.59696 | 37926 ft | 502 kts | 109° |
| 2026-05-08 02:42 | 50.91021 | 3.64999 | 38295 ft | 503 kts | 108° |
| 2026-05-08 02:42 | 50.90013 | 3.70296 | 38643 ft | 503 kts | 109° |
| 2026-05-08 02:43 | 50.88992 | 3.75600 | 38944 ft | 504 kts | 109° |
| 2026-05-08 02:43 | 50.87961 | 3.80914 | 39207 ft | 504 kts | 109° |
| 2026-05-08 02:43 | 50.86931 | 3.86213 | 39493 ft | 504 kts | 109° |
| 2026-05-08 02:43 | 50.85899 | 3.91507 | 39743 ft | 504 kts | 109° |
| 2026-05-08 02:44 | 50.84862 | 3.96819 | 39980 ft | 505 kts | 109° |
| 2026-05-08 02:44 | 50.83824 | 4.02128 | 40062 ft | 506 kts | 109° |
| 2026-05-08 02:44 | 50.81742 | 4.12739 | 40068 ft | 505 kts | 109° |
| 2026-05-08 02:45 | 50.79651 | 4.23344 | 40065 ft | 505 kts | 109° |
| 2026-05-08 02:45 | 50.77547 | 4.33950 | 40073 ft | 506 kts | 109° |
| 2026-05-08 02:46 | 50.75434 | 4.44548 | 40072 ft | 506 kts | 109° |
| 2026-05-08 02:46 | 50.73312 | 4.55132 | 40071 ft | 506 kts | 109° |
| 2026-05-08 02:47 | 50.71199 | 4.65703 | 40073 ft | 506 kts | 109° |
| 2026-05-08 02:47 | 50.69145 | 4.76320 | 40065 ft | 506 kts | 109° |
| 2026-05-08 02:48 | 50.67105 | 4.86875 | 40059 ft | 506 kts | 109° |
| 2026-05-08 02:48 | 50.65026 | 4.97466 | 40060 ft | 506 kts | 109° |
| 2026-05-08 02:49 | 50.62855 | 5.08000 | 40067 ft | 506 kts | 110° |
| 2026-05-08 02:49 | 50.60660 | 5.18519 | 40057 ft | 506 kts | 110° |
| 2026-05-08 02:50 | 50.58464 | 5.29048 | 40061 ft | 506 kts | 110° |
| 2026-05-08 02:50 | 50.56267 | 5.39575 | 40064 ft | 506 kts | 110° |
| 2026-05-08 02:51 | 50.54064 | 5.50084 | 40064 ft | 506 kts | 110° |
| 2026-05-08 02:51 | 50.51850 | 5.60585 | 40062 ft | 506 kts | 110° |
| 2026-05-08 02:52 | 50.49750 | 5.71163 | 40066 ft | 507 kts | 107° |
| 2026-05-08 02:52 | 50.47876 | 5.81833 | 40072 ft | 507 kts | 107° |
| 2026-05-08 02:53 | 50.45994 | 5.92495 | 40072 ft | 507 kts | 107° |
| 2026-05-08 02:53 | 50.44061 | 6.03137 | 40069 ft | 507 kts | 108° |
| 2026-05-08 02:54 | 50.42099 | 6.13767 | 40075 ft | 508 kts | 108° |
| 2026-05-08 02:54 | 50.40125 | 6.24387 | 40074 ft | 508 kts | 108° |
| 2026-05-08 02:55 | 50.37146 | 6.40319 | 40075 ft | 508 kts | 108° |
| 2026-05-08 02:56 | 50.35150 | 6.50921 | 40071 ft | 508 kts | 108° |
| 2026-05-08 02:56 | 50.33142 | 6.61527 | 40074 ft | 508 kts | 108° |
| 2026-05-08 02:57 | 50.31136 | 6.72064 | 40071 ft | 508 kts | 108° |
| 2026-05-08 02:57 | 50.29095 | 6.82725 | 40073 ft | 508 kts | 108° |
| 2026-05-08 02:58 | 50.27058 | 6.93309 | 40070 ft | 508 kts | 108° |
| 2026-05-08 02:58 | 50.25010 | 7.03885 | 40075 ft | 509 kts | 108° |
| 2026-05-08 02:59 | 50.22952 | 7.14456 | 40074 ft | 509 kts | 108° |
| 2026-05-08 02:59 | 50.20897 | 7.24956 | 40075 ft | 509 kts | 108° |
| 2026-05-08 03:00 | 50.18819 | 7.35510 | 40071 ft | 509 kts | 108° |
| 2026-05-08 03:00 | 50.16720 | 7.46119 | 40082 ft | 509 kts | 109° |
| 2026-05-08 03:01 | 50.14634 | 7.56603 | 40092 ft | 510 kts | 109° |
| 2026-05-08 03:01 | 50.12527 | 7.67133 | 40090 ft | 509 kts | 109° |
| 2026-05-08 03:02 | 50.10702 | 7.76209 | 40101 ft | 509 kts | 109° |
| 2026-05-08 03:02 | 50.08575 | 7.86737 | 40099 ft | 509 kts | 109° |
| 2026-05-08 03:03 | 50.06439 | 7.97252 | 40098 ft | 509 kts | 109° |
| 2026-05-08 03:03 | 50.04642 | 8.06049 | 40100 ft | 510 kts | 109° |
| 2026-05-08 03:04 | 50.02487 | 8.16556 | 40100 ft | 510 kts | 109° |
| 2026-05-08 03:04 | 50.00323 | 8.27048 | 40099 ft | 510 kts | 109° |
| 2026-05-08 03:05 | 49.98148 | 8.37539 | 40100 ft | 510 kts | 109° |
| 2026-05-08 03:05 | 49.95970 | 8.47981 | 40101 ft | 510 kts | 109° |
| 2026-05-08 03:06 | 49.93060 | 8.57872 | 40106 ft | 507 kts | 120° |
| 2026-05-08 03:06 | 49.89615 | 8.67417 | 40086 ft | 507 kts | 121° |
| 2026-05-08 03:07 | 49.86094 | 8.76878 | 40081 ft | 507 kts | 122° |
| 2026-05-08 03:07 | 49.82561 | 8.86329 | 40088 ft | 507 kts | 122° |
| 2026-05-08 03:08 | 49.79024 | 8.95790 | 40082 ft | 507 kts | 122° |
| 2026-05-08 03:08 | 49.75493 | 9.05231 | 40084 ft | 507 kts | 122° |
| 2026-05-08 03:09 | 49.71952 | 9.14664 | 40082 ft | 507 kts | 122° |
| 2026-05-08 03:09 | 49.68408 | 9.24074 | 40079 ft | 507 kts | 122° |
| 2026-05-08 03:09 | 49.66636 | 9.28768 | 39940 ft | 505 kts | 122° |
| 2026-05-08 03:10 | 49.64864 | 9.33452 | 39720 ft | 506 kts | 122° |
| 2026-05-08 03:10 | 49.63079 | 9.38138 | 39489 ft | 506 kts | 123° |
| 2026-05-08 03:10 | 49.61074 | 9.42561 | 39163 ft | 501 kts | 131° |
| 2026-05-08 03:10 | 49.58866 | 9.46715 | 38566 ft | 499 kts | 132° |
| 2026-05-08 03:11 | 49.56608 | 9.50771 | 37832 ft | 498 kts | 133° |
| 2026-05-08 03:11 | 49.54327 | 9.54770 | 37211 ft | 497 kts | 134° |
| 2026-05-08 03:11 | 49.52042 | 9.58735 | 36531 ft | 496 kts | 134° |
| 2026-05-08 03:11 | 49.49782 | 9.62647 | 35873 ft | 495 kts | 134° |
| 2026-05-08 03:12 | 49.47488 | 9.66620 | 35181 ft | 496 kts | 134° |
| 2026-05-08 03:12 | 49.45200 | 9.70589 | 34437 ft | 498 kts | 134° |
| 2026-05-08 03:12 | 49.42898 | 9.74586 | 33546 ft | 501 kts | 134° |
| 2026-05-08 03:12 | 49.40592 | 9.78590 | 32702 ft | 502 kts | 134° |
| 2026-05-08 03:13 | 49.38275 | 9.82610 | 31860 ft | 502 kts | 134° |
| 2026-05-08 03:13 | 49.35956 | 9.86623 | 31005 ft | 503 kts | 134° |
| 2026-05-08 03:13 | 49.33640 | 9.90620 | 30350 ft | 499 kts | 134° |
| 2026-05-08 03:13 | 49.31348 | 9.94575 | 29715 ft | 493 kts | 134° |
| 2026-05-08 03:14 | 49.29087 | 9.98469 | 29106 ft | 486 kts | 134° |
| 2026-05-08 03:14 | 49.26852 | 10.02314 | 28535 ft | 480 kts | 134° |
| 2026-05-08 03:14 | 49.24645 | 10.06104 | 27948 ft | 474 kts | 134° |
| 2026-05-08 03:14 | 49.22462 | 10.09844 | 27394 ft | 468 kts | 134° |
| 2026-05-08 03:15 | 49.20307 | 10.13531 | 26828 ft | 463 kts | 134° |
| 2026-05-08 03:15 | 49.18177 | 10.17178 | 26308 ft | 457 kts | 134° |
| 2026-05-08 03:15 | 49.16068 | 10.20786 | 25756 ft | 452 kts | 134° |
| 2026-05-08 03:15 | 49.13981 | 10.24346 | 25225 ft | 448 kts | 134° |
| 2026-05-08 03:16 | 49.11895 | 10.27838 | 24686 ft | 443 kts | 135° |
| 2026-05-08 03:16 | 49.09787 | 10.31243 | 24157 ft | 439 kts | 136° |
| 2026-05-08 03:16 | 49.07682 | 10.34586 | 23599 ft | 435 kts | 136° |
| 2026-05-08 03:16 | 49.05597 | 10.37885 | 22979 ft | 430 kts | 136° |
| 2026-05-08 03:17 | 49.03537 | 10.41150 | 22452 ft | 424 kts | 136° |
| 2026-05-08 03:17 | 49.01508 | 10.44379 | 21927 ft | 419 kts | 136° |
| 2026-05-08 03:17 | 48.99506 | 10.47575 | 21396 ft | 415 kts | 136° |
| 2026-05-08 03:17 | 48.97551 | 10.50696 | 20869 ft | 410 kts | 136° |
| 2026-05-08 03:18 | 48.95586 | 10.53824 | 20333 ft | 407 kts | 136° |
| 2026-05-08 03:18 | 48.93640 | 10.56924 | 19787 ft | 404 kts | 136° |
| 2026-05-08 03:18 | 48.91707 | 10.60001 | 19254 ft | 401 kts | 136° |
| 2026-05-08 03:18 | 48.89788 | 10.63048 | 18707 ft | 399 kts | 136° |
| 2026-05-08 03:19 | 48.87873 | 10.66082 | 18157 ft | 396 kts | 136° |
| 2026-05-08 03:19 | 48.85969 | 10.69096 | 17561 ft | 393 kts | 136° |
| 2026-05-08 03:19 | 48.84083 | 10.72081 | 17035 ft | 390 kts | 136° |
| 2026-05-08 03:19 | 48.82211 | 10.75039 | 16481 ft | 387 kts | 136° |
| 2026-05-08 03:20 | 48.80357 | 10.77968 | 15960 ft | 384 kts | 135° |
| 2026-05-08 03:20 | 48.78510 | 10.80878 | 15412 ft | 381 kts | 136° |
| 2026-05-08 03:20 | 48.76678 | 10.83753 | 14900 ft | 379 kts | 136° |
| 2026-05-08 03:20 | 48.74851 | 10.86614 | 14361 ft | 377 kts | 136° |
| 2026-05-08 03:21 | 48.73031 | 10.89461 | 13813 ft | 375 kts | 136° |
| 2026-05-08 03:21 | 48.71224 | 10.92285 | 13237 ft | 372 kts | 136° |
| 2026-05-08 03:21 | 48.69431 | 10.95087 | 12711 ft | 368 kts | 136° |
| 2026-05-08 03:21 | 48.67658 | 10.97863 | 12196 ft | 365 kts | 136° |
| 2026-05-08 03:22 | 48.65901 | 11.00602 | 11768 ft | 359 kts | 136° |
| 2026-05-08 03:22 | 48.64201 | 11.03245 | 11615 ft | 342 kts | 136° |
| 2026-05-08 03:22 | 48.62615 | 11.05713 | 11469 ft | 312 kts | 136° |
| 2026-05-08 03:22 | 48.61142 | 11.08004 | 11340 ft | 298 kts | 136° |
| 2026-05-08 03:23 | 48.59719 | 11.10209 | 11206 ft | 288 kts | 136° |
| 2026-05-08 03:23 | 48.58306 | 11.12289 | 11070 ft | 279 kts | 143° |
| 2026-05-08 03:23 | 48.56756 | 11.14046 | 10952 ft | 279 kts | 147° |
| 2026-05-08 03:23 | 48.55164 | 11.15720 | 10714 ft | 279 kts | 148° |
| 2026-05-08 03:24 | 48.53614 | 11.17415 | 10419 ft | 279 kts | 142° |
| 2026-05-08 03:24 | 48.52370 | 11.19718 | 10108 ft | 283 kts | 118° |
| 2026-05-08 03:24 | 48.51883 | 11.22555 | 9965 ft | 294 kts | 92° |
| 2026-05-08 03:24 | 48.52119 | 11.25711 | 9919 ft | 303 kts | 78° |
| 2026-05-08 03:25 | 48.52580 | 11.28829 | 9800 ft | 305 kts | 76° |
| 2026-05-08 03:25 | 48.53047 | 11.31899 | 9588 ft | 303 kts | 76° |
| 2026-05-08 03:25 | 48.53496 | 11.34924 | 9415 ft | 303 kts | 77° |
| 2026-05-08 03:25 | 48.53937 | 11.37947 | 9301 ft | 302 kts | 77° |
| 2026-05-08 03:26 | 48.54381 | 11.41035 | 9184 ft | 301 kts | 77° |
| 2026-05-08 03:26 | 48.54821 | 11.44121 | 9033 ft | 300 kts | 77° |
| 2026-05-08 03:26 | 48.55258 | 11.47198 | 8919 ft | 299 kts | 77° |
| 2026-05-08 03:26 | 48.55692 | 11.50267 | 8780 ft | 298 kts | 77° |
| 2026-05-08 03:27 | 48.56112 | 11.53330 | 8653 ft | 298 kts | 79° |
| 2026-05-08 03:27 | 48.56129 | 11.56428 | 8522 ft | 297 kts | 103° |
| 2026-05-08 03:27 | 48.55247 | 11.59184 | 8405 ft | 291 kts | 132° |
| 2026-05-08 03:27 | 48.53649 | 11.60969 | 8275 ft | 285 kts | 160° |
| 2026-05-08 03:28 | 48.51731 | 11.61473 | 8145 ft | 279 kts | 186° |
| 2026-05-08 03:28 | 48.49910 | 11.60682 | 8029 ft | 273 kts | 212° |
| 2026-05-08 03:28 | 48.48512 | 11.58827 | 7910 ft | 269 kts | 236° |
| 2026-05-08 03:28 | 48.47765 | 11.56277 | 7793 ft | 267 kts | 259° |
| 2026-05-08 03:29 | 48.47633 | 11.53491 | 7678 ft | 266 kts | 270° |
| 2026-05-08 03:29 | 48.47643 | 11.50706 | 7568 ft | 266 kts | 270° |
| 2026-05-08 03:29 | 48.47650 | 11.47910 | 7446 ft | 266 kts | 270° |
| 2026-05-08 03:29 | 48.47646 | 11.45123 | 7332 ft | 266 kts | 270° |
| 2026-05-08 03:30 | 48.47622 | 11.39557 | 7089 ft | 266 kts | 269° |
| 2026-05-08 03:30 | 48.47031 | 11.34124 | 6872 ft | 266 kts | 244° |
| 2026-05-08 03:31 | 48.45172 | 11.29335 | 6632 ft | 267 kts | 240° |
| 2026-05-08 03:31 | 48.43261 | 11.24516 | 6400 ft | 266 kts | 240° |
| 2026-05-08 03:32 | 48.42326 | 11.22147 | 6280 ft | 266 kts | 240° |
| 2026-05-08 03:32 | 48.41381 | 11.19752 | 6169 ft | 266 kts | 240° |
| 2026-05-08 03:32 | 48.40436 | 11.17358 | 6048 ft | 266 kts | 240° |
| 2026-05-08 03:32 | 48.39368 | 11.15081 | 5934 ft | 267 kts | 227° |
| 2026-05-08 03:33 | 48.37817 | 11.13570 | 5821 ft | 269 kts | 200° |
| 2026-05-08 03:33 | 48.35968 | 11.13302 | 5651 ft | 270 kts | 172° |
| 2026-05-08 03:33 | 48.34240 | 11.14350 | 5493 ft | 271 kts | 145° |
| 2026-05-08 03:33 | 48.33007 | 11.16474 | 5386 ft | 272 kts | 117° |
| 2026-05-08 03:34 | 48.32524 | 11.19204 | 5267 ft | 272 kts | 95° |
| 2026-05-08 03:34 | 48.32452 | 11.22047 | 5143 ft | 272 kts | 91° |
| 2026-05-08 03:34 | 48.32424 | 11.24882 | 5030 ft | 272 kts | 91° |
| 2026-05-08 03:34 | 48.32385 | 11.27720 | 4974 ft | 272 kts | 91° |
| 2026-05-08 03:35 | 48.32337 | 11.30559 | 4978 ft | 271 kts | 92° |
| 2026-05-08 03:35 | 48.32282 | 11.33391 | 4973 ft | 271 kts | 92° |
| 2026-05-08 03:35 | 48.32173 | 11.38519 | 4980 ft | 271 kts | 92° |
| 2026-05-08 03:36 | 48.32110 | 11.41354 | 4984 ft | 271 kts | 92° |
| 2026-05-08 03:36 | 48.32038 | 11.44172 | 4978 ft | 265 kts | 94° |
| 2026-05-08 03:36 | 48.31942 | 11.46834 | 4982 ft | 246 kts | 88° |
| 2026-05-08 03:36 | 48.32104 | 11.49303 | 4951 ft | 231 kts | 83° |
| 2026-05-08 03:37 | 48.32278 | 11.51667 | 4707 ft | 224 kts | 84° |
| 2026-05-08 03:37 | 48.32444 | 11.53986 | 4377 ft | 222 kts | 84° |
| 2026-05-08 03:37 | 48.32619 | 11.56274 | 4038 ft | 219 kts | 84° |
| 2026-05-08 03:37 | 48.32792 | 11.58532 | 3737 ft | 215 kts | 84° |
| 2026-05-08 03:38 | 48.32959 | 11.60708 | 3459 ft | 203 kts | 84° |
| 2026-05-08 03:38 | 48.33113 | 11.62697 | 3184 ft | 184 kts | 84° |
| 2026-05-08 03:38 | 48.33252 | 11.64508 | 2945 ft | 166 kts | 84° |
| 2026-05-08 03:38 | 48.33378 | 11.66146 | 2729 ft | 150 kts | 83° |
| 2026-05-08 03:39 | 48.33493 | 11.67649 | 2525 ft | 140 kts | 83° |
| 2026-05-08 03:39 | 48.33602 | 11.69059 | 2337 ft | 134 kts | 83° |
| 2026-05-08 03:39 | 48.33709 | 11.70456 | 2141 ft | 135 kts | 83° |
| 2026-05-08 03:39 | 48.33816 | 11.71854 | 1954 ft | 135 kts | 82° |
| 2026-05-08 03:40 | 48.33924 | 11.73257 | 1773 ft | 135 kts | 82° |
| 2026-05-08 03:40 | 48.34034 | 11.74664 | 1592 ft | 135 kts | 82° |
| 2026-05-08 03:40 | 48.34140 | 11.76055 | 1470 ft | 129 kts | 83° |
| 2026-05-08 03:40 | 48.34226 | 11.77168 | 1468 ft | 72 kts | 83° |
| 2026-05-08 03:41 | 48.34305 | 11.77492 | 1462 ft | 13 kts | 56° |
| 2026-05-08 03:41 | 48.34368 | 11.77623 | 1462 ft | 18 kts | 53° |
| 2026-05-08 03:41 | 48.34449 | 11.77786 | 1463 ft | 21 kts | 54° |
| 2026-05-08 03:41 | 48.34534 | 11.77984 | 1461 ft | 24 kts | 65° |
| 2026-05-08 03:42 | 48.34567 | 11.78172 | 1462 ft | 18 kts | 69° |
| 2026-05-08 03:42 | 48.34590 | 11.78367 | 1468 ft | 20 kts | 84° |
| 2026-05-08 03:42 | 48.34608 | 11.78594 | 1462 ft | 23 kts | 83° |
| 2026-05-08 03:42 | 48.34627 | 11.78845 | 1465 ft | 25 kts | 83° |
| 2026-05-08 03:43 | 48.34648 | 11.79115 | 1464 ft | 27 kts | 83° |
| 2026-05-08 03:43 | 48.34672 | 11.79410 | 1472 ft | 29 kts | 83° |
| 2026-05-08 03:43 | 48.34688 | 11.79616 | 1467 ft | 18 kts | 82° |
| 2026-05-08 03:43 | 48.34765 | 11.79709 | 1469 ft | 15 kts | 359° |
| 2026-05-08 03:44 | 48.34878 | 11.79692 | 1467 ft | 14 kts | 354° |
| 2026-05-08 03:44 | 48.34983 | 11.79674 | 1466 ft | 17 kts | 353° |
| 2026-05-08 03:44 | 48.35092 | 11.79607 | 1463 ft | 18 kts | 326° |
| 2026-05-08 03:44 | 48.35217 | 11.79563 | 1466 ft | 20 kts | 353° |
| 2026-05-08 03:45 | 48.35356 | 11.79538 | 1463 ft | 11 kts | 353° |
| 2026-05-08 03:45 | 48.35373 | 11.79535 | 1468 ft | 3 kts | 353° |
| 2026-05-08 03:45 | 48.35405 | 11.79520 | 1461 ft | 6 kts | 329° |
| 2026-05-08 03:45 | 48.35428 | 11.79457 | 1463 ft | 7 kts | 271° |
| 2026-05-08 03:46 | 48.35409 | 11.79374 | 1465 ft | 9 kts | 259° |
| 2026-05-08 03:46 | 48.35409 | 11.79341 | 1461 ft | 4 kts | 270° |
| 2026-05-08 03:46 | 48.35410 | 11.79319 | 1464 ft | 0 kts | 272° |